createdAt,value
2018-02-18T00:01:23.802Z,123.30
2018-02-18T00:03:52.240Z,105.10
2018-02-18T00:06:19.836Z,98.57
2018-02-18T00:08:48.461Z,96.20
2018-02-18T00:11:16.326Z,103.63
2018-02-18T00:13:43.906Z,90.30
2018-02-18T00:16:11.745Z,82.27
2018-02-18T00:18:39.314Z,101.20
2018-02-18T00:21:06.879Z,89.70
2018-02-18T00:23:34.481Z,95.97
2018-02-18T00:26:03.133Z,90.50
2018-02-18T00:28:30.706Z,89.77
2018-02-18T00:30:58.281Z,84.40
2018-02-18T00:33:26.812Z,80.97
2018-02-18T00:35:54.423Z,94.93
2018-02-18T00:38:22.776Z,87.77
2018-02-18T00:40:50.369Z,98.20
2018-02-18T00:43:18.887Z,76.80
2018-02-18T00:45:46.458Z,86.90
2018-02-18T00:48:14.329Z,99.17
2018-02-18T00:50:41.902Z,92.10
2018-02-18T00:53:09.483Z,90.87
2018-02-18T00:55:38.244Z,95.53
2018-02-18T00:58:05.794Z,77.57
2018-02-18T01:00:33.374Z,91.53
2018-02-18T01:03:01.323Z,98.20
2018-02-18T01:05:28.896Z,109.97
2018-02-18T01:07:57.239Z,117.67
2018-02-18T01:10:25.235Z,99.73
2018-02-18T01:12:52.806Z,109.43
2018-02-18T01:15:21.176Z,123.97
2018-02-18T01:17:48.788Z,106.00
2018-02-18T01:20:16.374Z,104.30
2018-02-18T01:22:43.938Z,110.43
2018-02-18T01:25:11.791Z,97.13
2018-02-18T01:27:39.371Z,108.97
2018-02-18T01:30:06.962Z,101.17
2018-02-18T01:32:35.719Z,113.47
2018-02-18T01:35:04.075Z,123.37
2018-02-18T01:37:31.723Z,111.77
2018-02-18T01:39:59.402Z,112.47
2018-02-18T01:42:27.008Z,109.00
2018-02-18T01:44:55.362Z,103.10
2018-02-18T01:47:24.766Z,110.53
2018-02-18T01:49:52.356Z,122.30
2018-02-18T01:52:21.102Z,140.20
2018-02-18T01:54:48.733Z,114.47
2018-02-18T01:57:16.282Z,118.70
2018-02-18T01:59:43.850Z,103.60
2018-02-18T02:02:11.545Z,123.37
2018-02-18T02:04:39.114Z,124.57
2018-02-18T02:07:06.697Z,117.77
2018-02-18T02:09:35.081Z,107.97
2018-02-18T02:12:03.435Z,117.00
2018-02-18T02:14:31.797Z,112.63
2018-02-18T02:16:59.487Z,124.60
2018-02-18T02:19:27.825Z,100.37
2018-02-18T02:21:55.404Z,111.37
2018-02-18T02:24:23.024Z,118.07
2018-02-18T02:26:50.584Z,122.57
2018-02-18T02:29:18.150Z,128.27
2018-02-18T02:31:45.766Z,131.73
2018-02-18T02:34:14.122Z,140.13
2018-02-18T02:36:41.840Z,142.03
2018-02-18T02:39:09.488Z,155.43
2018-02-18T02:41:37.065Z,156.13
2018-02-18T02:44:04.641Z,153.40
2018-02-18T02:46:33.780Z,171.60
2018-02-18T02:49:01.386Z,149.27
2018-02-18T02:51:28.972Z,156.07
2018-02-18T02:53:56.575Z,148.20
2018-02-18T02:56:24.501Z,156.77
2018-02-18T02:58:52.171Z,151.47
2018-02-18T03:01:20.592Z,143.93
2018-02-18T03:03:48.229Z,148.80
2018-02-18T03:06:15.797Z,145.07
2018-02-18T03:08:43.373Z,161.17
2018-02-18T03:11:11.371Z,125.73
2018-02-18T03:13:38.997Z,133.20
2018-02-18T03:16:06.579Z,140.30
2018-02-18T03:18:34.196Z,132.60
2018-02-18T03:21:02.010Z,139.13
2018-02-18T03:23:29.611Z,119.87
2018-02-18T03:25:57.986Z,137.90
2018-02-18T03:28:26.369Z,121.27
2018-02-18T03:30:54.724Z,126.23
2018-02-18T03:33:22.340Z,117.97
2018-02-18T03:35:49.923Z,129.60
2018-02-18T03:38:17.489Z,131.97
2018-02-18T03:40:45.112Z,132.33
2018-02-18T03:43:12.690Z,125.10
2018-02-18T03:45:40.301Z,109.27
2018-02-18T03:48:07.919Z,129.77
2018-02-18T03:50:35.506Z,129.10
2018-02-18T03:53:06.227Z,120.80
2018-02-18T03:55:33.844Z,126.90
2018-02-18T03:58:01.459Z,103.60
2018-02-18T04:00:29.805Z,136.67
2018-02-18T04:02:57.412Z,117.30
2018-02-18T04:05:25.762Z,122.97
2018-02-18T04:07:54.118Z,133.93
2018-02-18T04:10:21.753Z,106.90
2018-02-18T04:12:49.314Z,117.53
2018-02-18T04:15:16.902Z,125.83
2018-02-18T04:17:44.519Z,113.57
2018-02-18T04:20:12.096Z,103.93
2018-02-18T04:22:39.667Z,110.17
2018-02-18T04:25:07.271Z,116.37
2018-02-18T04:27:36.527Z,112.80
2018-02-18T04:30:04.111Z,116.10
2018-02-18T04:32:32.489Z,111.87
2018-02-18T04:35:00.075Z,108.97
2018-02-18T04:37:28.424Z,101.77
2018-02-18T04:39:56.807Z,113.07
2018-02-18T04:42:24.385Z,112.23
2018-02-18T04:44:52.767Z,103.87
2018-02-18T04:47:21.582Z,125.63
2018-02-18T04:49:49.320Z,113.83
2018-02-18T04:52:16.882Z,117.73
2018-02-18T04:54:45.280Z,103.70
2018-02-18T04:57:13.745Z,106.03
2018-02-18T04:59:41.546Z,116.57
2018-02-18T05:02:09.141Z,103.07
2018-02-18T05:04:36.811Z,118.10
2018-02-18T05:07:05.533Z,115.40
2018-02-18T05:09:33.102Z,113.23
2018-02-18T05:12:00.670Z,110.67
2018-02-18T05:14:28.287Z,129.50
2018-02-18T05:16:56.205Z,107.03
2018-02-18T05:19:23.875Z,119.10
2018-02-18T05:21:51.449Z,110.87
2018-02-18T05:24:19.386Z,111.07
2018-02-18T05:26:46.960Z,112.50
2018-02-18T05:29:16.412Z,116.00
2018-02-18T05:31:44.036Z,108.87
2018-02-18T05:34:11.618Z,108.30
2018-02-18T05:36:39.967Z,104.43
2018-02-18T05:39:08.654Z,126.20
2018-02-18T05:41:36.198Z,101.27
2018-02-18T05:44:03.738Z,103.53
2018-02-18T05:46:31.355Z,121.53
2018-02-18T05:48:59.735Z,109.30
2018-02-18T05:51:28.071Z,109.03
2018-02-18T05:53:56.036Z,110.80
2018-02-18T05:56:23.616Z,119.50
2018-02-18T05:58:51.294Z,109.70
2018-02-18T06:01:19.954Z,117.20
2018-02-18T06:03:47.531Z,106.33
2018-02-18T06:06:15.870Z,109.90
2018-02-18T06:08:43.534Z,118.17
2018-02-18T06:11:11.126Z,104.23
2018-02-18T06:13:39.777Z,115.73
2018-02-18T06:16:07.346Z,99.87
2018-02-18T06:18:34.925Z,105.03
2018-02-18T06:21:03.424Z,112.67
2018-02-18T06:23:31.772Z,125.00
2018-02-18T06:25:59.487Z,105.80
2018-02-18T06:28:27.105Z,110.70
2018-02-18T06:30:54.702Z,103.40
2018-02-18T06:33:22.285Z,109.83
2018-02-18T06:35:49.864Z,106.23
2018-02-18T06:38:17.711Z,116.93
2018-02-18T06:40:45.348Z,122.27
2018-02-18T06:43:12.932Z,102.77
2018-02-18T06:45:40.817Z,118.47
2018-02-18T06:48:09.911Z,122.03
2018-02-18T06:50:37.477Z,103.97
2018-02-18T06:53:05.151Z,107.90
2018-02-18T06:55:33.763Z,108.50
2018-02-18T06:58:01.337Z,111.87
2018-02-18T07:00:29.239Z,118.37
2018-02-18T07:02:56.821Z,115.47
2018-02-18T07:05:25.162Z,115.37
2018-02-18T07:07:53.144Z,113.57
2018-02-18T07:10:20.726Z,100.00
2018-02-18T07:12:49.068Z,113.43
2018-02-18T07:15:16.691Z,104.70
2018-02-18T07:17:44.277Z,99.47
2018-02-18T07:20:11.882Z,98.90
2018-02-18T07:22:40.225Z,98.87
2018-02-18T07:25:08.246Z,107.87
2018-02-18T07:27:35.813Z,111.97
2018-02-18T07:30:03.377Z,95.03
2018-02-18T07:32:31.043Z,102.67
2018-02-18T07:34:58.614Z,101.90
2018-02-18T07:37:26.216Z,101.27
2018-02-18T07:39:54.158Z,98.70
2018-02-18T07:42:22.548Z,99.90
2018-02-18T07:44:50.117Z,95.73
2018-02-18T07:47:17.740Z,101.13
2018-02-18T07:49:45.379Z,92.23
2018-02-18T07:52:12.960Z,109.07
2018-02-18T07:54:41.069Z,92.53
2018-02-18T07:57:08.625Z,95.87
2018-02-18T07:59:36.236Z,88.40
2018-02-18T08:02:03.841Z,94.10
2018-02-18T08:04:31.447Z,99.77
2018-02-18T08:06:59.037Z,108.13
2018-02-18T08:09:26.750Z,98.97
2018-02-18T08:11:54.392Z,108.80
2018-02-18T08:14:22.769Z,100.57
2018-02-18T08:16:51.129Z,96.87
2018-02-18T08:19:18.718Z,128.77
2018-02-18T08:21:47.112Z,96.93
2018-02-18T08:24:14.795Z,88.33
2018-02-18T08:26:42.358Z,96.23
2018-02-18T08:29:10.357Z,88.57
2018-02-18T08:31:37.889Z,102.13
2018-02-18T08:34:05.453Z,98.70
2018-02-18T08:36:33.073Z,90.40
2018-02-18T08:39:00.649Z,95.90
2018-02-18T08:41:28.319Z,105.97
2018-02-18T08:43:55.928Z,79.43
2018-02-18T08:46:24.329Z,80.53
2018-02-18T08:48:51.920Z,83.60
2018-02-18T08:51:19.511Z,82.90
2018-02-18T08:53:47.129Z,89.27
2018-02-18T08:56:14.970Z,71.30
2018-02-18T08:58:43.309Z,82.93
2018-02-18T09:01:10.883Z,81.90
2018-02-18T09:03:39.282Z,78.33
2018-02-18T09:06:07.653Z,76.17
2018-02-18T09:08:36.020Z,67.77
2018-02-18T09:11:04.690Z,72.23
2018-02-18T09:13:32.257Z,72.97
2018-02-18T09:15:59.827Z,72.57
2018-02-18T09:18:28.213Z,71.90
2018-02-18T09:20:56.546Z,74.67
2018-02-18T09:23:24.144Z,65.00
2018-02-18T09:25:52.533Z,70.13
2018-02-18T09:28:20.140Z,64.73
2018-02-18T09:30:47.711Z,71.83
2018-02-18T09:33:15.318Z,64.07
2018-02-18T09:35:42.893Z,70.10
2018-02-18T09:38:10.474Z,77.00
2018-02-18T09:40:38.404Z,69.40
2018-02-18T09:43:05.943Z,63.63
2018-02-18T09:45:33.547Z,74.47
2018-02-18T09:48:01.419Z,74.53
2018-02-18T09:50:29.001Z,65.23
2018-02-18T09:52:56.624Z,63.00
2018-02-18T09:55:25.756Z,71.43
2018-02-18T09:57:53.411Z,75.23
2018-02-18T10:00:20.989Z,64.93
2018-02-18T10:02:48.658Z,70.03
2018-02-18T10:05:17.002Z,75.77
2018-02-18T10:07:44.572Z,69.03
2018-02-18T10:10:12.539Z,64.13
2018-02-18T10:12:40.965Z,61.57
2018-02-18T10:15:08.540Z,65.53
2018-02-18T10:17:36.138Z,62.63
2018-02-18T10:20:03.701Z,43.63
2018-02-18T10:22:31.287Z,46.97
2018-02-18T10:24:59.926Z,46.43
2018-02-18T10:27:27.503Z,48.10
2018-02-18T10:29:55.168Z,61.07
2018-02-18T10:32:23.015Z,46.03
2018-02-18T10:34:50.758Z,57.10
2018-02-18T10:37:18.333Z,56.13
2018-02-18T10:39:45.947Z,59.50
2018-02-18T10:42:13.591Z,45.73
2018-02-18T10:44:41.929Z,53.87
2018-02-18T10:47:09.540Z,53.67
2018-02-18T10:49:37.887Z,48.70
2018-02-18T10:52:05.442Z,52.53
2018-02-18T10:54:33.128Z,49.77
2018-02-18T10:57:01.488Z,51.43
2018-02-18T10:59:29.087Z,49.80
2018-02-18T11:01:56.761Z,48.20
2018-02-18T11:04:24.785Z,51.27
2018-02-18T11:06:52.348Z,54.97
2018-02-18T11:09:21.534Z,58.30
2018-02-18T11:11:50.598Z,53.50
2018-02-18T11:14:18.137Z,56.63
2018-02-18T11:16:45.744Z,46.13
2018-02-18T11:19:13.318Z,55.63
2018-02-18T11:21:41.652Z,48.93
2018-02-18T11:24:09.268Z,52.33
2018-02-18T11:26:37.633Z,48.97
2018-02-18T11:29:05.990Z,46.97
2018-02-18T11:31:33.623Z,50.47
2018-02-18T11:34:01.425Z,46.60
2018-02-18T11:36:30.512Z,48.50
2018-02-18T11:38:59.188Z,43.80
2018-02-18T11:41:26.754Z,56.87
2018-02-18T11:43:55.109Z,46.40
2018-02-18T11:46:22.722Z,46.27
2018-02-18T11:48:51.090Z,57.43
2018-02-18T11:51:19.439Z,43.13
2018-02-18T11:53:47.068Z,47.37
2018-02-18T11:56:14.649Z,45.00
2018-02-18T11:58:42.228Z,44.23
2018-02-18T12:01:10.889Z,43.07
2018-02-18T12:03:38.637Z,41.60
2018-02-18T12:06:06.210Z,43.00
2018-02-18T12:08:34.199Z,46.10
2018-02-18T12:11:01.755Z,51.43
2018-02-18T12:13:29.377Z,52.37
2018-02-18T12:15:57.277Z,43.73
2018-02-18T12:18:24.855Z,53.83
2018-02-18T12:20:53.212Z,47.87
2018-02-18T12:23:21.090Z,47.40
2018-02-18T12:25:50.187Z,43.30
2018-02-18T12:28:17.772Z,45.87
2018-02-18T12:30:45.711Z,56.67
2018-02-18T12:33:14.042Z,39.00
2018-02-18T12:35:41.616Z,44.90
2018-02-18T12:38:09.273Z,43.70
2018-02-18T12:40:36.856Z,38.20
2018-02-18T12:43:04.408Z,45.90
2018-02-18T12:45:32.004Z,43.30
2018-02-18T12:48:00.353Z,44.37
2018-02-18T12:50:27.932Z,41.37
2018-02-18T12:52:56.290Z,43.73
2018-02-18T12:55:25.422Z,40.03
2018-02-18T12:57:53.756Z,46.30
2018-02-18T13:00:21.395Z,39.27
2018-02-18T13:02:49.375Z,40.67
2018-02-18T13:05:17.006Z,40.10
2018-02-18T13:07:44.604Z,39.87
2018-02-18T13:10:12.211Z,48.70
2018-02-18T13:12:40.552Z,40.50
2018-02-18T13:15:08.407Z,37.07
2018-02-18T13:17:35.990Z,42.43
2018-02-18T13:20:05.040Z,39.70
2018-02-18T13:22:32.660Z,38.17
2018-02-18T13:25:00.243Z,34.63
2018-02-18T13:27:27.868Z,45.97
2018-02-18T13:29:57.357Z,39.27
2018-02-18T13:32:24.983Z,39.87
2018-02-18T13:34:52.589Z,42.90
2018-02-18T13:37:21.131Z,42.77
2018-02-18T13:39:48.680Z,50.90
2018-02-18T13:42:16.430Z,39.43
2018-02-18T13:44:44.302Z,42.07
2018-02-18T13:47:11.875Z,49.60
2018-02-18T13:49:39.451Z,46.13
2018-02-18T13:52:07.044Z,51.63
2018-02-18T13:54:35.360Z,48.03
2018-02-18T13:57:02.929Z,41.43
2018-02-18T13:59:30.914Z,41.43
2018-02-18T14:01:59.256Z,45.27
2018-02-18T14:04:26.841Z,38.40
2018-02-18T14:06:54.465Z,41.97
2018-02-18T14:09:22.037Z,38.20
2018-02-18T14:11:49.606Z,36.30
2018-02-18T14:14:17.224Z,40.43
2018-02-18T14:16:45.563Z,41.20
2018-02-18T14:19:13.636Z,44.50
2018-02-18T14:21:41.226Z,40.37
2018-02-18T14:24:09.583Z,40.17
2018-02-18T14:26:37.531Z,47.40
2018-02-18T14:29:05.142Z,44.60
2018-02-18T14:31:32.709Z,41.27
2018-02-18T14:34:00.331Z,51.70
2018-02-18T14:39:00.404Z,39.93
2018-02-18T14:41:39.921Z,45.10
2018-02-18T14:44:20.218Z,42.70
2018-02-18T14:46:59.716Z,50.37
2018-02-18T14:49:39.838Z,40.73
2018-02-18T14:52:19.281Z,42.20
2018-02-18T14:55:09.379Z,42.90
2018-02-18T14:57:37.716Z,43.90
2018-02-18T15:00:05.292Z,43.90
2018-02-18T15:02:32.892Z,42.73
2018-02-18T15:05:01.280Z,46.00
2018-02-18T15:07:28.869Z,44.87
2018-02-18T15:09:56.497Z,40.73
2018-02-18T15:12:24.088Z,45.00
2018-02-18T15:14:51.666Z,45.33
2018-02-18T15:17:19.265Z,41.07
2018-02-18T15:19:47.584Z,49.97
2018-02-18T15:22:15.137Z,45.97
2018-02-18T15:24:42.744Z,53.07
2018-02-18T15:27:10.314Z,42.50
2018-02-18T15:29:38.657Z,48.13
2018-02-18T15:32:06.266Z,46.40
2018-02-18T15:34:33.881Z,51.43
2018-02-18T15:37:01.455Z,54.53
2018-02-18T15:39:29.959Z,47.20
2018-02-18T15:41:57.541Z,43.80
2018-02-18T15:44:25.110Z,39.70
2018-02-18T15:46:53.013Z,44.80
2018-02-18T15:49:22.166Z,46.47
2018-02-18T15:51:49.738Z,45.00
2018-02-18T15:54:17.620Z,44.57
2018-02-18T15:56:45.171Z,44.73
2018-02-18T15:59:12.771Z,49.07
2018-02-18T16:01:41.429Z,51.83
2018-02-18T16:04:09.160Z,50.23
2018-02-18T16:06:36.745Z,48.17
2018-02-18T16:09:04.622Z,42.23
2018-02-18T16:11:32.225Z,44.97
2018-02-18T16:13:59.800Z,44.17
2018-02-18T16:16:27.395Z,51.03
2018-02-18T16:18:55.021Z,46.50
2018-02-18T16:21:22.604Z,49.00
2018-02-18T16:23:50.214Z,58.53
2018-02-18T16:26:18.557Z,63.27
2018-02-18T16:28:46.148Z,55.97
2018-02-18T16:31:14.804Z,51.87
2018-02-18T16:33:43.135Z,51.60
2018-02-18T16:36:11.236Z,53.60
2018-02-18T16:38:39.113Z,60.53
2018-02-18T16:41:08.261Z,54.20
2018-02-18T16:43:35.929Z,63.60
2018-02-18T16:46:03.531Z,61.97
2018-02-18T16:48:31.920Z,58.57
2018-02-18T16:50:59.560Z,72.00
2018-02-18T16:53:27.091Z,62.17
2018-02-18T16:55:54.696Z,63.93
2018-02-18T16:58:22.267Z,66.13
2018-02-18T17:00:50.681Z,56.70
2018-02-18T17:03:18.579Z,56.53
2018-02-18T17:05:46.927Z,67.37
2018-02-18T17:08:14.505Z,65.97
2018-02-18T17:10:42.126Z,64.93
2018-02-18T17:13:09.696Z,51.27
2018-02-18T17:15:37.315Z,61.67
2018-02-18T17:18:06.183Z,69.60
2018-02-18T17:20:35.304Z,73.50
2018-02-18T17:23:03.645Z,59.57
2018-02-18T17:25:31.361Z,61.93
2018-02-18T17:27:58.988Z,62.97
2018-02-18T17:30:26.558Z,62.83
2018-02-18T17:32:55.936Z,67.97
2018-02-18T17:35:23.502Z,69.80
2018-02-18T17:37:51.094Z,65.30
2018-02-18T17:40:19.472Z,65.23
2018-02-18T17:42:47.829Z,70.03
2018-02-18T17:45:15.422Z,64.87
2018-02-18T17:47:43.050Z,87.83
2018-02-18T17:50:11.394Z,84.23
2018-02-18T17:52:38.982Z,70.27
2018-02-18T17:55:08.095Z,81.23
2018-02-18T17:57:36.914Z,72.30
2018-02-18T18:00:04.477Z,69.70
2018-02-18T18:02:32.113Z,77.03
2018-02-18T18:05:00.454Z,80.73
2018-02-18T18:07:28.055Z,70.10
2018-02-18T18:09:55.664Z,75.40
2018-02-18T18:12:23.231Z,71.23
2018-02-18T18:14:50.842Z,67.00
2018-02-18T18:17:19.988Z,71.53
2018-02-18T18:19:47.653Z,71.70
2018-02-18T18:22:15.257Z,63.67
2018-02-18T18:24:42.915Z,67.63
2018-02-18T18:27:10.489Z,68.17
2018-02-18T18:29:38.161Z,76.70
2018-02-18T18:32:05.792Z,83.23
2018-02-18T18:34:33.438Z,71.27
2018-02-18T18:37:01.776Z,78.20
2018-02-18T18:39:29.426Z,82.83
2018-02-18T18:41:57.106Z,69.57
2018-02-18T18:44:24.708Z,81.20
2018-02-18T18:46:52.285Z,77.83
2018-02-18T18:49:19.913Z,79.93
2018-02-18T18:51:48.252Z,68.97
2018-02-18T18:54:16.719Z,74.40
2018-02-18T18:56:44.605Z,74.33
2018-02-18T18:59:13.061Z,80.13
2018-02-18T19:01:40.796Z,88.60
2018-02-18T19:04:08.519Z,83.17
2018-02-18T19:06:36.495Z,89.77
2018-02-18T19:09:04.848Z,90.87
2018-02-18T19:11:32.424Z,77.73
2018-02-18T19:14:00.503Z,77.50
2018-02-18T19:16:28.921Z,75.67
2018-02-18T19:18:56.488Z,81.70
2018-02-18T19:21:24.089Z,77.93
2018-02-18T19:23:51.691Z,73.93
2018-02-18T19:26:19.241Z,74.03
2018-02-18T19:28:47.996Z,80.00
2018-02-18T19:31:15.572Z,92.83
2018-02-18T19:33:43.917Z,85.43
2018-02-18T19:36:11.812Z,101.37
2018-02-18T19:38:40.155Z,83.93
2018-02-18T19:41:07.766Z,90.60
2018-02-18T19:43:36.170Z,92.07
2018-02-18T19:46:03.751Z,81.20
2018-02-18T19:48:31.341Z,93.20
2018-02-18T19:50:59.720Z,80.53
2018-02-18T19:53:28.391Z,93.27
2018-02-18T19:55:55.968Z,84.83
2018-02-18T19:58:24.646Z,84.77
2018-02-18T20:00:52.254Z,96.10
2018-02-18T20:03:19.830Z,94.93
2018-02-18T20:05:47.729Z,88.37
2018-02-18T20:08:15.291Z,94.13
2018-02-18T20:10:43.212Z,97.93
2018-02-18T20:13:10.950Z,88.30
2018-02-18T20:15:38.538Z,73.23
2018-02-18T20:18:06.117Z,72.13
2018-02-18T20:20:33.986Z,87.07
2018-02-18T20:23:01.881Z,88.53
2018-02-18T20:25:30.779Z,72.40
2018-02-18T20:27:59.164Z,81.30
2018-02-18T20:30:26.852Z,82.93
2018-02-18T20:32:54.416Z,80.57
2018-02-18T20:35:22.038Z,86.23
2018-02-18T20:37:50.374Z,81.50
2018-02-18T20:40:18.007Z,87.73
2018-02-18T20:42:45.587Z,97.60
2018-02-18T20:45:13.201Z,93.50
2018-02-18T20:47:41.525Z,96.40
2018-02-18T20:50:09.110Z,92.30
2018-02-18T20:52:37.057Z,97.47
2018-02-18T20:55:04.612Z,90.73
2018-02-18T20:57:32.195Z,85.30
2018-02-18T20:59:59.803Z,89.07
2018-02-18T21:02:27.517Z,96.60
2018-02-18T21:04:55.092Z,81.17
2018-02-18T21:07:23.504Z,92.70
2018-02-18T21:09:51.059Z,87.57
2018-02-18T21:12:18.633Z,84.60
2018-02-18T21:14:46.234Z,77.27
2018-02-18T21:17:13.858Z,91.23
2018-02-18T21:19:41.441Z,82.43
2018-02-18T21:22:10.535Z,87.17
2018-02-18T21:24:38.152Z,84.97
2018-02-18T21:27:05.737Z,85.90
2018-02-18T21:29:33.317Z,91.63
2018-02-18T21:32:01.282Z,75.20
2018-02-18T21:34:28.901Z,79.77
2018-02-18T21:36:56.561Z,86.90
2018-02-18T21:39:24.454Z,84.07
2018-02-18T21:41:52.018Z,93.37
2018-02-18T21:44:19.601Z,91.30
2018-02-18T21:46:48.230Z,89.10
2018-02-18T21:49:15.795Z,93.97
2018-02-18T21:51:43.373Z,91.37
2018-02-18T21:54:10.981Z,87.93
2018-02-18T21:56:38.584Z,85.80
2018-02-18T21:59:06.158Z,99.80
2018-02-18T22:01:34.754Z,77.80
2018-02-18T22:04:02.321Z,80.90
2018-02-18T22:06:30.801Z,94.50
2018-02-18T22:08:59.512Z,83.90
2018-02-18T22:11:27.095Z,82.03
2018-02-18T22:13:54.671Z,90.07
2018-02-18T22:16:22.290Z,91.23
2018-02-18T22:18:49.894Z,86.17
2018-02-18T22:21:17.459Z,91.80
2018-02-18T22:23:45.538Z,82.60
2018-02-18T22:26:13.132Z,90.50
2018-02-18T22:28:41.528Z,86.47
2018-02-18T22:31:09.117Z,93.17
2018-02-18T22:33:36.717Z,81.67
2018-02-18T22:36:05.086Z,91.10
2018-02-18T22:38:32.650Z,94.50
2018-02-18T22:41:00.273Z,85.17
2018-02-18T22:43:27.852Z,79.20
2018-02-18T22:45:55.440Z,92.43
2018-02-18T22:48:23.806Z,91.37
2018-02-18T22:50:51.395Z,84.97
2018-02-18T22:53:18.992Z,83.43
2018-02-18T22:55:46.573Z,86.40
2018-02-18T22:58:14.150Z,79.30
2018-02-18T23:00:42.580Z,85.07
2018-02-18T23:03:10.144Z,85.13
2018-02-18T23:05:43.460Z,81.97
2018-02-18T23:08:11.401Z,76.03
2018-02-18T23:10:39.043Z,93.13
2018-02-18T23:13:06.609Z,73.00
2018-02-18T23:15:34.397Z,80.60
2018-02-18T23:18:01.965Z,68.87
2018-02-18T23:20:42.816Z,78.17
2018-02-18T23:23:10.404Z,76.13
2018-02-18T23:25:37.979Z,80.23
2018-02-18T23:28:06.622Z,74.30
2018-02-18T23:30:35.389Z,78.40
2018-02-18T23:33:02.958Z,85.30
2018-02-18T23:35:30.847Z,73.73
2018-02-18T23:37:58.409Z,77.47
2018-02-18T23:40:25.989Z,74.43
2018-02-18T23:42:54.406Z,82.07
2018-02-18T23:45:22.066Z,75.50
2018-02-18T23:47:49.876Z,78.37
2018-02-18T23:50:19.254Z,79.90
2018-02-18T23:52:46.842Z,86.70
2018-02-18T23:55:14.603Z,78.70
2018-02-18T23:57:42.166Z,82.87
